createdAt,value
2023-09-23T00:00:58.857Z,9.30
2023-09-23T00:03:27.373Z,8.77
2023-09-23T00:05:54.612Z,9.60
2023-09-23T00:08:21.707Z,10.05
2023-09-23T00:10:52.379Z,9.27
2023-09-23T00:13:22.203Z,9.10
2023-09-23T00:15:51.190Z,8.95
2023-09-23T00:18:18.940Z,8.07
2023-09-23T00:20:46.704Z,7.97
2023-09-23T00:23:14.583Z,8.25
2023-09-23T00:25:41.788Z,8.43
2023-09-23T00:28:12.204Z,8.45
2023-09-23T00:30:39.594Z,9.35
2023-09-23T00:33:09.044Z,8.05
2023-09-23T00:35:37.909Z,8.18
2023-09-23T00:38:08.680Z,8.50
2023-09-23T00:40:39.535Z,7.95
2023-09-23T00:43:14.566Z,8.50
2023-09-23T00:45:49.385Z,8.30
2023-09-23T00:48:23.147Z,7.95
2023-09-23T00:50:53.697Z,7.97
2023-09-23T00:53:23.645Z,8.35
2023-09-23T00:55:56.628Z,7.97
2023-09-23T00:58:26.372Z,8.40
2023-09-23T01:00:56.112Z,7.43
2023-09-23T01:03:25.346Z,8.43
2023-09-23T01:06:05.687Z,8.00
2023-09-23T01:08:34.648Z,7.63
2023-09-23T01:11:01.903Z,8.25
2023-09-23T01:13:31.498Z,7.63
2023-09-23T01:16:00.932Z,8.45
2023-09-23T01:18:30.061Z,7.32
2023-09-23T01:21:01.825Z,7.35
2023-09-23T01:23:29.197Z,7.28
2023-09-23T01:25:56.454Z,7.07
2023-09-23T01:28:24.041Z,7.10
2023-09-23T01:30:51.273Z,7.70
2023-09-23T01:33:18.623Z,8.07
2023-09-23T01:35:47.114Z,8.98
2023-09-23T01:38:16.886Z,8.77
2023-09-23T01:40:45.000Z,8.98
2023-09-23T01:43:13.058Z,10.13
2023-09-23T01:45:41.248Z,9.77
2023-09-23T01:48:09.516Z,9.85
2023-09-23T01:50:36.733Z,9.73
2023-09-23T01:53:04.543Z,9.68
2023-09-23T01:55:32.264Z,9.00
2023-09-23T01:57:59.734Z,9.45
2023-09-23T02:00:30.844Z,10.80
2023-09-23T02:02:59.040Z,9.98
2023-09-23T02:05:29.005Z,9.98
2023-09-23T02:07:56.744Z,10.38
2023-09-23T02:10:27.525Z,9.95
2023-09-23T02:12:56.630Z,10.20
2023-09-23T02:15:23.834Z,10.00
2023-09-23T02:17:51.524Z,10.65
2023-09-23T02:20:20.699Z,10.45
2023-09-23T02:22:55.181Z,10.93
2023-09-23T02:25:26.202Z,10.23
2023-09-23T02:27:56.359Z,10.55
2023-09-23T02:30:24.578Z,10.20
2023-09-23T02:32:51.939Z,10.50
2023-09-23T02:35:19.176Z,10.60
2023-09-23T02:37:47.840Z,11.30
2023-09-23T02:40:16.014Z,10.23
2023-09-23T02:42:45.854Z,9.93
2023-09-23T02:45:15.402Z,10.88
2023-09-23T02:47:45.556Z,11.02
2023-09-23T02:50:15.044Z,10.18
2023-09-23T02:52:46.227Z,10.10
2023-09-23T02:55:16.871Z,10.00
2023-09-23T02:57:51.948Z,9.80
2023-09-23T03:00:31.369Z,9.57
2023-09-23T03:03:00.177Z,9.85
2023-09-23T03:05:31.307Z,9.93
2023-09-23T03:08:01.422Z,9.48
2023-09-23T03:10:40.798Z,9.65
2023-09-23T03:13:09.159Z,9.40
2023-09-23T03:15:52.445Z,10.45
2023-09-23T03:18:29.766Z,9.63
2023-09-23T03:21:04.749Z,10.38
2023-09-23T03:23:31.871Z,9.50
2023-09-23T03:26:00.567Z,9.77
2023-09-23T03:28:27.833Z,9.30
2023-09-23T03:31:01.331Z,11.30
2023-09-23T03:33:28.618Z,10.77
2023-09-23T03:35:56.618Z,10.20
2023-09-23T03:38:24.128Z,9.82
2023-09-23T03:40:53.588Z,10.68
2023-09-23T03:43:22.608Z,10.50
2023-09-23T03:45:50.021Z,11.13
2023-09-23T03:48:17.203Z,10.82
2023-09-23T03:50:44.625Z,10.32
2023-09-23T03:53:13.099Z,10.75
2023-09-23T03:55:40.532Z,10.50
2023-09-23T03:58:07.902Z,9.98
2023-09-23T04:00:35.990Z,9.95
2023-09-23T04:03:03.283Z,10.73
2023-09-23T04:05:32.889Z,10.30
2023-09-23T04:08:00.153Z,9.63
2023-09-23T04:10:28.610Z,10.93
2023-09-23T04:12:56.746Z,9.45
2023-09-23T04:15:25.772Z,10.13
2023-09-23T04:17:53.544Z,9.93
2023-09-23T04:20:20.905Z,10.20
2023-09-23T04:22:48.154Z,9.82
2023-09-23T04:25:15.516Z,11.10
2023-09-23T04:27:42.691Z,11.18
2023-09-23T04:30:10.964Z,10.30
2023-09-23T04:32:40.525Z,10.70
2023-09-23T04:35:09.064Z,9.50
2023-09-23T04:37:39.916Z,10.55
2023-09-23T04:40:12.147Z,9.88
2023-09-23T04:42:44.181Z,10.20
2023-09-23T04:45:13.025Z,10.27
2023-09-23T04:47:41.475Z,10.13
2023-09-23T04:50:13.780Z,9.75
2023-09-23T04:52:42.534Z,9.00
2023-09-23T04:55:10.313Z,10.15
2023-09-23T04:57:37.674Z,11.20
2023-09-23T05:00:10.739Z,10.32
2023-09-23T05:02:40.943Z,10.30
2023-09-23T05:05:11.240Z,11.32
2023-09-23T05:07:39.266Z,9.95
2023-09-23T05:10:08.024Z,10.05
2023-09-23T05:12:35.487Z,11.15
2023-09-23T05:15:04.405Z,10.73
2023-09-23T05:17:32.705Z,10.50
2023-09-23T05:20:00.105Z,10.00
2023-09-23T05:22:27.306Z,10.02
2023-09-23T05:24:59.028Z,9.27
2023-09-23T05:27:26.623Z,9.40
2023-09-23T05:29:54.747Z,10.13
2023-09-23T05:32:22.075Z,9.15
2023-09-23T05:34:52.932Z,9.63
2023-09-23T05:37:20.543Z,9.30
2023-09-23T05:39:47.683Z,9.73
2023-09-23T05:42:24.414Z,10.02
2023-09-23T05:44:51.534Z,9.68
2023-09-23T05:47:18.660Z,8.93
2023-09-23T05:49:47.737Z,8.88
2023-09-23T05:52:16.213Z,8.73
2023-09-23T05:54:43.550Z,8.65
2023-09-23T05:57:10.955Z,9.00
2023-09-23T05:59:38.074Z,8.13
2023-09-23T06:02:09.956Z,8.68
2023-09-23T06:04:37.280Z,8.57
2023-09-23T06:07:05.978Z,8.70
2023-09-23T06:09:33.312Z,8.88
2023-09-23T06:12:00.486Z,9.07
2023-09-23T06:14:27.830Z,8.00
2023-09-23T06:16:55.220Z,7.72
2023-09-23T06:19:22.731Z,7.90
2023-09-23T06:21:50.123Z,8.40
2023-09-23T06:24:17.332Z,7.75
2023-09-23T06:26:44.490Z,8.43
2023-09-23T06:29:11.805Z,7.82
2023-09-23T06:31:38.933Z,8.85
2023-09-23T06:34:07.561Z,8.13
2023-09-23T06:36:35.111Z,7.55
2023-09-23T06:39:02.252Z,7.78
2023-09-23T06:41:29.423Z,7.97
2023-09-23T06:43:58.317Z,7.80
2023-09-23T06:46:25.577Z,6.97
2023-09-23T06:48:52.704Z,7.38
2023-09-23T06:51:19.800Z,8.20
2023-09-23T06:53:48.571Z,7.10
2023-09-23T06:56:16.287Z,7.13
2023-09-23T06:58:43.400Z,6.78
2023-09-23T07:01:10.509Z,7.07
2023-09-23T07:03:37.690Z,7.15
2023-09-23T07:06:04.946Z,6.75
2023-09-23T07:08:32.154Z,6.65
2023-09-23T07:10:59.355Z,7.22
2023-09-23T07:13:26.579Z,6.60
2023-09-23T07:15:53.728Z,6.20
2023-09-23T07:18:20.893Z,6.57
2023-09-23T07:20:48.041Z,6.45
2023-09-23T07:23:15.261Z,6.15
2023-09-23T07:25:43.679Z,6.35
2023-09-23T07:28:11.359Z,6.40
2023-09-23T07:30:39.514Z,6.28
2023-09-23T07:33:07.077Z,6.40
2023-09-23T07:35:34.801Z,7.68
2023-09-23T07:38:04.108Z,7.25
2023-09-23T07:40:32.187Z,6.53
2023-09-23T07:42:59.455Z,6.32
2023-09-23T07:45:26.966Z,6.20
2023-09-23T07:47:54.202Z,5.88
2023-09-23T07:50:22.147Z,6.35
2023-09-23T07:52:49.659Z,5.65
2023-09-23T07:55:17.063Z,5.88
2023-09-23T07:57:46.168Z,6.03
2023-09-23T08:00:13.650Z,6.15
2023-09-23T08:02:40.857Z,5.85
2023-09-23T08:05:08.467Z,6.25
2023-09-23T08:07:35.745Z,6.32
2023-09-23T08:10:05.171Z,6.00
2023-09-23T08:12:35.533Z,6.10
2023-09-23T08:15:03.130Z,5.88
2023-09-23T08:17:32.944Z,5.47
2023-09-23T08:20:00.791Z,5.35
2023-09-23T08:22:27.919Z,5.43
2023-09-23T08:24:55.075Z,5.90
2023-09-23T08:27:22.357Z,5.35
2023-09-23T08:29:51.043Z,5.30
2023-09-23T08:32:18.287Z,5.43
2023-09-23T08:34:45.757Z,5.43
2023-09-23T08:37:12.988Z,5.45
2023-09-23T08:39:40.339Z,5.30
2023-09-23T08:42:08.870Z,4.82
2023-09-23T08:44:36.546Z,5.30
2023-09-23T08:47:03.946Z,5.22
2023-09-23T08:49:31.948Z,5.13
2023-09-23T08:52:00.937Z,5.32
2023-09-23T08:54:30.306Z,5.40
2023-09-23T08:56:57.659Z,5.05
2023-09-23T08:59:28.118Z,4.68
2023-09-23T09:01:56.805Z,4.60
2023-09-23T09:04:25.561Z,4.53
2023-09-23T09:06:54.725Z,4.93
2023-09-23T09:09:22.086Z,4.78
2023-09-23T09:11:51.053Z,4.80
2023-09-23T09:14:18.964Z,4.72
2023-09-23T09:16:46.823Z,4.30
2023-09-23T09:19:14.204Z,4.47
2023-09-23T09:21:42.661Z,4.25
2023-09-23T09:24:12.585Z,4.03
2023-09-23T09:26:39.687Z,4.75
2023-09-23T09:29:07.007Z,4.38
2023-09-23T09:31:36.209Z,3.97
2023-09-23T09:34:12.714Z,4.47
2023-09-23T09:39:09.930Z,3.63
2023-09-23T09:41:48.245Z,4.13
2023-09-23T09:44:22.496Z,4.65
2023-09-23T09:46:51.714Z,4.60
2023-09-23T09:49:19.089Z,4.40
2023-09-23T09:51:50.365Z,4.40
2023-09-23T09:54:26.781Z,4.30
2023-09-23T09:56:57.162Z,4.40
2023-09-23T09:59:27.881Z,4.05
2023-09-23T10:01:59.216Z,3.95
2023-09-23T10:04:35.114Z,4.50
2023-09-23T10:07:07.342Z,4.43
2023-09-23T10:09:37.651Z,4.22
2023-09-23T10:12:05.625Z,4.10
2023-09-23T10:14:33.029Z,4.30
2023-09-23T10:17:03.131Z,4.55
2023-09-23T10:19:34.520Z,4.25
2023-09-23T10:22:21.903Z,3.90
2023-09-23T10:25:02.808Z,4.00
2023-09-23T10:27:33.739Z,4.25
2023-09-23T10:30:03.542Z,3.92
2023-09-23T10:32:32.398Z,4.25
2023-09-23T10:35:00.400Z,4.18
2023-09-23T10:37:30.660Z,5.30
2023-09-23T10:40:18.799Z,4.50
2023-09-23T10:42:50.547Z,4.15
2023-09-23T10:45:23.742Z,4.60
2023-09-23T10:47:51.785Z,5.05
2023-09-23T10:50:18.939Z,4.30
2023-09-23T10:52:46.569Z,4.45
2023-09-23T10:55:14.060Z,4.78
2023-09-23T10:57:41.375Z,4.95
2023-09-23T11:00:21.752Z,5.07
2023-09-23T11:02:56.251Z,4.35
2023-09-23T11:05:24.462Z,4.43
2023-09-23T11:07:55.722Z,4.53
2023-09-23T11:10:24.315Z,4.22
2023-09-23T11:12:51.480Z,4.25
2023-09-23T11:15:19.033Z,4.10
2023-09-23T11:17:46.458Z,4.15
2023-09-23T11:20:14.750Z,4.18
2023-09-23T11:22:45.327Z,4.22
2023-09-23T11:25:13.539Z,4.90
2023-09-23T11:27:41.443Z,4.60
2023-09-23T11:30:09.344Z,4.40
2023-09-23T11:32:36.650Z,4.35
2023-09-23T11:35:04.182Z,4.78
2023-09-23T11:37:31.516Z,4.63
2023-09-23T11:39:58.812Z,4.15
2023-09-23T11:42:26.025Z,4.28
2023-09-23T11:44:54.008Z,4.38
2023-09-23T11:47:22.682Z,4.50
2023-09-23T11:49:50.282Z,4.15
2023-09-23T11:52:17.844Z,4.25
2023-09-23T11:54:45.558Z,4.20
2023-09-23T11:57:13.862Z,4.28
2023-09-23T11:59:41.553Z,3.90
2023-09-23T12:02:10.106Z,4.35
2023-09-23T12:04:37.785Z,4.18
2023-09-23T12:07:06.152Z,4.20
2023-09-23T12:09:36.946Z,3.80
2023-09-23T12:12:04.499Z,3.88
2023-09-23T12:14:31.764Z,4.20
2023-09-23T12:16:59.093Z,4.10
2023-09-23T12:19:26.176Z,4.07
2023-09-23T12:21:53.290Z,3.65
2023-09-23T12:24:20.329Z,3.97
2023-09-23T12:26:47.527Z,4.15
2023-09-23T12:29:14.729Z,4.75
2023-09-23T12:31:41.849Z,4.32
2023-09-23T12:34:08.967Z,4.43
2023-09-23T12:36:36.078Z,4.22
2023-09-23T12:39:03.646Z,4.30
2023-09-23T12:41:30.770Z,4.13
2023-09-23T12:43:58.480Z,3.88
2023-09-23T12:46:25.708Z,4.38
2023-09-23T12:48:52.816Z,4.07
2023-09-23T12:51:20.934Z,4.10
2023-09-23T12:53:49.371Z,3.97
2023-09-23T12:56:18.718Z,3.72
2023-09-23T12:58:46.406Z,3.88
2023-09-23T13:01:14.212Z,4.30
2023-09-23T13:03:41.879Z,3.83
2023-09-23T13:06:09.189Z,4.13
2023-09-23T13:08:36.371Z,4.15
2023-09-23T13:11:03.752Z,3.67
2023-09-23T13:13:31.113Z,3.97
2023-09-23T13:15:58.298Z,4.38
2023-09-23T13:18:25.593Z,4.18
2023-09-23T13:20:52.837Z,4.18
2023-09-23T13:23:19.931Z,4.00
2023-09-23T13:25:47.563Z,3.78
2023-09-23T13:28:15.202Z,4.50
2023-09-23T13:30:42.340Z,3.80
2023-09-23T13:33:10.400Z,4.40
2023-09-23T13:35:38.020Z,4.38
2023-09-23T13:38:08.139Z,4.00
2023-09-23T13:40:37.064Z,3.75
2023-09-23T13:43:04.424Z,3.95
2023-09-23T13:45:31.637Z,4.55
2023-09-23T13:47:59.161Z,4.47
2023-09-23T13:50:27.348Z,3.97
2023-09-23T13:52:54.585Z,4.55
2023-09-23T13:55:21.680Z,4.55
2023-09-23T13:57:49.000Z,4.53
2023-09-23T14:00:16.269Z,4.00
2023-09-23T14:02:43.682Z,4.15
2023-09-23T14:05:12.308Z,4.50
2023-09-23T14:07:39.890Z,4.35
2023-09-23T14:10:19.279Z,4.28
2023-09-23T14:12:49.348Z,3.80
2023-09-23T14:15:17.245Z,4.28
2023-09-23T14:17:44.611Z,4.68
2023-09-23T14:20:14.029Z,4.60
2023-09-23T14:22:46.707Z,4.35
2023-09-23T14:25:15.499Z,4.70
2023-09-23T14:27:44.248Z,4.22
2023-09-23T14:30:12.267Z,5.07
2023-09-23T14:32:39.966Z,4.47
2023-09-23T14:35:07.759Z,4.30
2023-09-23T14:37:35.468Z,5.05
2023-09-23T14:40:03.450Z,4.45
2023-09-23T14:42:32.207Z,4.57
2023-09-23T14:44:59.422Z,4.93
2023-09-23T14:47:27.561Z,4.80
2023-09-23T14:49:54.840Z,4.50
2023-09-23T14:52:22.270Z,4.75
2023-09-23T14:54:49.449Z,4.25
2023-09-23T14:57:16.981Z,4.95
2023-09-23T14:59:45.409Z,5.53
2023-09-23T15:02:12.743Z,5.30
2023-09-23T15:04:39.950Z,4.93
2023-09-23T15:07:07.061Z,5.22
2023-09-23T15:09:34.244Z,5.30
2023-09-23T15:12:01.397Z,4.97
2023-09-23T15:14:28.720Z,6.15
2023-09-23T15:16:56.034Z,5.75
2023-09-23T15:19:23.360Z,5.50
2023-09-23T15:21:50.419Z,9.98
2023-09-23T15:24:18.251Z,11.27
2023-09-23T15:26:46.178Z,8.05
2023-09-23T15:29:13.421Z,6.88
2023-09-23T15:31:40.481Z,7.45
2023-09-23T15:34:08.153Z,6.40
2023-09-23T15:36:36.721Z,5.75
2023-09-23T15:39:05.502Z,5.70
2023-09-23T15:41:32.904Z,5.70
2023-09-23T15:44:00.152Z,6.07
2023-09-23T15:46:27.373Z,5.70
2023-09-23T15:48:54.577Z,5.85
2023-09-23T15:51:21.809Z,6.03
2023-09-23T15:53:49.142Z,5.32
2023-09-23T15:56:16.576Z,5.50
2023-09-23T15:58:45.302Z,5.05
2023-09-23T16:01:12.916Z,5.70
2023-09-23T16:03:40.359Z,4.93
2023-09-23T16:06:07.680Z,6.28
2023-09-23T16:08:34.980Z,5.57
2023-09-23T16:11:05.546Z,5.28
2023-09-23T16:13:33.601Z,5.70
2023-09-23T16:16:00.834Z,5.93
2023-09-23T16:18:28.108Z,6.30
2023-09-23T16:20:55.364Z,6.35
2023-09-23T16:23:22.592Z,5.50
2023-09-23T16:25:50.460Z,5.57
2023-09-23T16:28:17.692Z,6.47
2023-09-23T16:30:46.355Z,6.82
2023-09-23T16:33:13.948Z,6.60
2023-09-23T16:35:41.374Z,6.20
2023-09-23T16:38:08.627Z,5.93
2023-09-23T16:40:37.277Z,6.50
2023-09-23T16:43:05.055Z,6.25
2023-09-23T16:45:32.423Z,6.65
2023-09-23T16:47:59.654Z,6.20
2023-09-23T16:50:27.284Z,7.63
2023-09-23T16:52:54.533Z,6.28
2023-09-23T16:55:21.952Z,6.75
2023-09-23T16:57:49.283Z,6.68
2023-09-23T17:00:18.284Z,7.47
2023-09-23T17:02:46.037Z,7.93
2023-09-23T17:05:14.138Z,6.70
2023-09-23T17:07:41.342Z,7.28
2023-09-23T17:10:09.691Z,7.13
2023-09-23T17:12:37.046Z,8.10
2023-09-23T17:15:05.282Z,7.90
2023-09-23T17:17:33.211Z,7.05
2023-09-23T17:20:00.963Z,8.02
2023-09-23T17:22:28.687Z,7.75
2023-09-23T17:24:55.842Z,7.82
2023-09-23T17:27:23.059Z,8.18
2023-09-23T17:29:50.223Z,8.15
2023-09-23T17:32:17.402Z,8.50
2023-09-23T17:34:44.612Z,7.80
2023-09-23T17:37:14.455Z,7.60
2023-09-23T17:39:41.607Z,8.38
2023-09-23T17:42:08.812Z,9.15
2023-09-23T17:44:38.041Z,8.65
2023-09-23T17:47:05.971Z,8.73
2023-09-23T17:49:33.099Z,8.27
2023-09-23T17:52:00.185Z,8.10
2023-09-23T17:54:27.435Z,8.00
2023-09-23T17:56:54.577Z,7.75
2023-09-23T17:59:22.349Z,7.97
2023-09-23T18:01:49.707Z,7.60
2023-09-23T18:04:17.331Z,7.68
2023-09-23T18:06:44.733Z,7.57
2023-09-23T18:09:11.945Z,8.25
2023-09-23T18:11:39.211Z,7.75
2023-09-23T18:14:06.533Z,7.88
2023-09-23T18:16:33.835Z,8.05
2023-09-23T18:19:00.999Z,8.35
2023-09-23T18:21:28.222Z,8.18
2023-09-23T18:23:55.440Z,8.23
2023-09-23T18:26:22.690Z,8.15
2023-09-23T18:28:49.887Z,8.10
2023-09-23T18:31:17.112Z,7.75
2023-09-23T18:33:44.498Z,8.65
2023-09-23T18:36:12.378Z,9.35
2023-09-23T18:38:39.738Z,8.45
2023-09-23T18:41:07.252Z,8.23
2023-09-23T18:43:34.368Z,8.40
2023-09-23T18:46:01.581Z,8.07
2023-09-23T18:48:31.756Z,8.18
2023-09-23T18:51:00.371Z,9.35
2023-09-23T18:53:28.056Z,8.68
2023-09-23T18:55:55.826Z,8.10
2023-09-23T18:58:23.133Z,8.23
2023-09-23T19:00:50.388Z,8.02
2023-09-23T19:03:18.749Z,8.30
2023-09-23T19:05:47.565Z,8.50
2023-09-23T19:08:15.535Z,8.27
2023-09-23T19:10:42.947Z,8.70
2023-09-23T19:13:10.315Z,8.68
2023-09-23T19:15:37.629Z,8.00
2023-09-23T19:18:05.105Z,8.15
2023-09-23T19:20:32.976Z,8.32
2023-09-23T19:23:00.232Z,8.63
2023-09-23T19:25:27.333Z,9.45
2023-09-23T19:27:54.458Z,8.75
2023-09-23T19:30:21.749Z,8.88
2023-09-23T19:32:50.985Z,8.10
2023-09-23T19:35:18.774Z,8.30
2023-09-23T19:37:46.346Z,8.43
2023-09-23T19:40:13.604Z,8.40
2023-09-23T19:42:40.717Z,8.32
2023-09-23T19:45:09.821Z,8.27
2023-09-23T19:47:38.281Z,7.93
2023-09-23T19:50:07.549Z,8.30
2023-09-23T19:52:35.464Z,7.10
2023-09-23T19:55:03.062Z,7.97
2023-09-23T19:57:32.450Z,7.80
2023-09-23T20:00:00.615Z,9.02
2023-09-23T20:02:28.248Z,8.13
2023-09-23T20:04:56.171Z,8.00
2023-09-23T20:07:24.904Z,8.40
2023-09-23T20:09:52.090Z,7.53
2023-09-23T20:12:19.188Z,8.50
2023-09-23T20:14:46.451Z,8.25
2023-09-23T20:17:13.654Z,7.78
2023-09-23T20:19:40.813Z,8.00
2023-09-23T20:22:07.950Z,7.35
2023-09-23T20:24:35.196Z,7.63
2023-09-23T20:27:05.029Z,8.73
2023-09-23T20:29:32.161Z,7.95
2023-09-23T20:31:59.256Z,7.68
2023-09-23T20:34:26.398Z,8.15
2023-09-23T20:36:57.260Z,8.27
2023-09-23T20:39:24.840Z,6.70
2023-09-23T20:41:53.849Z,7.22
2023-09-23T20:44:21.231Z,7.20
2023-09-23T20:46:48.382Z,6.68
2023-09-23T20:49:15.569Z,6.53
2023-09-23T20:51:42.798Z,6.60
2023-09-23T20:54:10.037Z,6.03
2023-09-23T20:56:37.164Z,6.75
2023-09-23T20:59:04.305Z,6.43
2023-09-23T21:01:31.473Z,6.35
2023-09-23T21:03:58.782Z,5.72
2023-09-23T21:06:26.039Z,5.85
2023-09-23T21:08:53.300Z,5.80
2023-09-23T21:11:20.595Z,6.03
2023-09-23T21:13:48.137Z,6.05
2023-09-23T21:16:16.256Z,5.93
2023-09-23T21:18:43.645Z,6.18
2023-09-23T21:21:10.942Z,5.80
2023-09-23T21:23:39.257Z,5.90
2023-09-23T21:26:07.383Z,5.70
2023-09-23T21:28:34.518Z,5.68
2023-09-23T21:31:01.582Z,6.18
2023-09-23T21:33:28.906Z,6.35
2023-09-23T21:35:56.329Z,5.68
2023-09-23T21:38:23.583Z,6.32
2023-09-23T21:40:50.707Z,5.63
2023-09-23T21:43:18.007Z,5.63
2023-09-23T21:45:45.342Z,5.68
2023-09-23T21:48:12.601Z,5.38
2023-09-23T21:50:39.848Z,5.63
2023-09-23T21:53:07.003Z,5.35
2023-09-23T21:55:34.127Z,5.57
2023-09-23T21:58:01.251Z,5.97
2023-09-23T22:00:29.230Z,5.53
2023-09-23T22:02:58.521Z,5.68
2023-09-23T22:05:27.337Z,5.18
2023-09-23T22:08:01.986Z,5.50
2023-09-23T22:10:29.643Z,5.25
2023-09-23T22:12:58.278Z,5.07
2023-09-23T22:15:26.971Z,5.00
2023-09-23T22:17:54.944Z,5.63
2023-09-23T22:20:26.137Z,5.20
2023-09-23T22:22:54.887Z,4.90
2023-09-23T22:25:23.471Z,4.93
2023-09-23T22:27:55.347Z,5.38
2023-09-23T22:30:27.394Z,5.30
2023-09-23T22:32:58.994Z,4.95
2023-09-23T22:35:31.089Z,4.90
2023-09-23T22:38:00.507Z,4.95
2023-09-23T22:40:27.901Z,5.30
2023-09-23T22:42:59.855Z,5.15
2023-09-23T22:45:38.516Z,5.78
2023-09-23T22:48:08.780Z,5.07
2023-09-23T22:50:36.543Z,5.35
2023-09-23T22:53:06.514Z,5.30
2023-09-23T22:55:34.137Z,5.43
2023-09-23T22:58:01.262Z,5.15
2023-09-23T23:00:28.785Z,5.60
2023-09-23T23:02:57.881Z,5.40
2023-09-23T23:05:28.211Z,5.03
2023-09-23T23:07:57.471Z,5.22
2023-09-23T23:10:25.003Z,5.35
2023-09-23T23:12:52.272Z,5.60
2023-09-23T23:15:19.712Z,4.70
2023-09-23T23:17:48.486Z,5.32
2023-09-23T23:20:24.284Z,5.50
2023-09-23T23:22:56.329Z,5.10
2023-09-23T23:25:25.174Z,4.82
2023-09-23T23:27:53.270Z,5.13
2023-09-23T23:30:21.922Z,4.97
2023-09-23T23:32:49.957Z,5.00
2023-09-23T23:35:24.386Z,5.50
2023-09-23T23:37:52.400Z,5.00
2023-09-23T23:40:24.616Z,5.65
2023-09-23T23:42:52.228Z,5.43
2023-09-23T23:45:22.972Z,5.32
2023-09-23T23:47:56.721Z,4.85
2023-09-23T23:50:25.223Z,5.43
2023-09-23T23:52:52.989Z,5.35
2023-09-23T23:55:20.374Z,5.53
2023-09-23T23:57:48.525Z,6.05
